sensor_id;sensor_type;location;lat;lon;timestamp;pressure;altitude;pressure_sealevel;temperature;humidity
29907;BME280;16776;50.958;10.994;2023-06-10T00:01:30;98410.84;;;18.28;83.37
29907;BME280;16776;50.958;10.994;2023-06-10T00:04:01;98409.25;;;18.25;83.50
29907;BME280;16776;50.958;10.994;2023-06-10T00:06:29;98394.91;;;18.18;83.34
29907;BME280;16776;50.958;10.994;2023-06-10T00:09:02;98403.47;;;18.20;83.39
29907;BME280;16776;50.958;10.994;2023-06-10T00:11:31;98404.59;;;18.16;83.56
29907;BME280;16776;50.958;10.994;2023-06-10T00:13:57;98407.38;;;18.13;83.40
29907;BME280;16776;50.958;10.994;2023-06-10T00:16:25;98412.81;;;18.10;83.62
29907;BME280;16776;50.958;10.994;2023-06-10T00:18:51;98400.88;;;18.06;83.52
29907;BME280;16776;50.958;10.994;2023-06-10T00:21:18;98408.81;;;18.04;83.36
29907;BME280;16776;50.958;10.994;2023-06-10T00:23:46;98409.72;;;18.03;83.78
29907;BME280;16776;50.958;10.994;2023-06-10T00:26:13;98414.34;;;17.98;83.81
29907;BME280;16776;50.958;10.994;2023-06-10T00:28:40;98417.06;;;17.97;83.60
29907;BME280;16776;50.958;10.994;2023-06-10T00:31:07;98411.19;;;17.93;83.73
29907;BME280;16776;50.958;10.994;2023-06-10T00:33:33;98415.69;;;17.91;84.12
29907;BME280;16776;50.958;10.994;2023-06-10T00:36:00;98408.88;;;17.89;84.00
29907;BME280;16776;50.958;10.994;2023-06-10T00:38:27;98410.72;;;17.87;84.02
29907;BME280;16776;50.958;10.994;2023-06-10T00:40:55;98411.56;;;17.87;84.09
29907;BME280;16776;50.958;10.994;2023-06-10T00:43:22;98408.41;;;17.82;84.17
29907;BME280;16776;50.958;10.994;2023-06-10T00:45:49;98422.34;;;17.81;84.28
29907;BME280;16776;50.958;10.994;2023-06-10T00:48:17;98403.97;;;17.68;84.27
29907;BME280;16776;50.958;10.994;2023-06-10T00:50:44;98431.38;;;17.75;84.26
29907;BME280;16776;50.958;10.994;2023-06-10T00:53:13;98422.63;;;17.76;84.24
29907;BME280;16776;50.958;10.994;2023-06-10T00:55:40;98430.94;;;17.67;84.62
29907;BME280;16776;50.958;10.994;2023-06-10T00:58:09;98435.31;;;17.67;84.63
29907;BME280;16776;50.958;10.994;2023-06-10T01:00:36;98431.38;;;17.60;84.81
29907;BME280;16776;50.958;10.994;2023-06-10T01:03:04;98437.72;;;17.56;84.68
29907;BME280;16776;50.958;10.994;2023-06-10T01:05:33;98431.19;;;17.49;84.85
29907;BME280;16776;50.958;10.994;2023-06-10T01:08:06;98438.16;;;17.48;84.78
29907;BME280;16776;50.958;10.994;2023-06-10T01:10:41;98446.16;;;17.45;84.85
29907;BME280;16776;50.958;10.994;2023-06-10T01:13:13;98440.47;;;17.38;85.03
29907;BME280;16776;50.958;10.994;2023-06-10T01:15:40;98441.06;;;17.28;85.19
29907;BME280;16776;50.958;10.994;2023-06-10T01:18:08;98447.38;;;17.24;85.49
29907;BME280;16776;50.958;10.994;2023-06-10T01:20:37;98440.84;;;17.17;85.48
29907;BME280;16776;50.958;10.994;2023-06-10T01:23:07;98443.50;;;17.15;85.42
29907;BME280;16776;50.958;10.994;2023-06-10T01:25:37;98444.69;;;17.10;85.35
29907;BME280;16776;50.958;10.994;2023-06-10T01:28:08;98436.25;;;17.06;85.90
29907;BME280;16776;50.958;10.994;2023-06-10T01:30:43;98434.16;;;16.97;85.74
29907;BME280;16776;50.958;10.994;2023-06-10T01:33:14;98445.63;;;16.93;85.49
29907;BME280;16776;50.958;10.994;2023-06-10T01:35:45;98439.00;;;16.87;86.10
29907;BME280;16776;50.958;10.994;2023-06-10T01:38:21;98437.31;;;16.86;85.84
29907;BME280;16776;50.958;10.994;2023-06-10T01:40:52;98445.47;;;16.80;86.04
29907;BME280;16776;50.958;10.994;2023-06-10T01:43:20;98455.69;;;16.68;86.01
29907;BME280;16776;50.958;10.994;2023-06-10T01:45:47;98455.94;;;16.63;86.20
29907;BME280;16776;50.958;10.994;2023-06-10T01:48:14;98446.69;;;16.57;86.57
29907;BME280;16776;50.958;10.994;2023-06-10T01:50:41;98443.59;;;16.51;86.22
29907;BME280;16776;50.958;10.994;2023-06-10T01:53:09;98445.59;;;16.46;86.45
29907;BME280;16776;50.958;10.994;2023-06-10T01:55:37;98453.56;;;16.43;85.95
29907;BME280;16776;50.958;10.994;2023-06-10T01:58:03;98453.28;;;16.32;86.37
29907;BME280;16776;50.958;10.994;2023-06-10T02:00:30;98454.56;;;16.25;86.48
29907;BME280;16776;50.958;10.994;2023-06-10T02:02:56;98460.16;;;16.17;86.66
29907;BME280;16776;50.958;10.994;2023-06-10T02:05:24;98455.31;;;16.09;86.93
29907;BME280;16776;50.958;10.994;2023-06-10T02:07:51;98458.22;;;16.03;86.95
29907;BME280;16776;50.958;10.994;2023-06-10T02:10:19;98461.13;;;15.97;87.10
29907;BME280;16776;50.958;10.994;2023-06-10T02:12:47;98464.66;;;15.96;87.14
29907;BME280;16776;50.958;10.994;2023-06-10T02:15:14;98464.13;;;15.90;87.19
29907;BME280;16776;50.958;10.994;2023-06-10T02:17:41;98463.53;;;15.85;87.24
29907;BME280;16776;50.958;10.994;2023-06-10T02:20:08;98455.03;;;15.81;87.47
29907;BME280;16776;50.958;10.994;2023-06-10T02:22:37;98453.53;;;15.77;87.31
29907;BME280;16776;50.958;10.994;2023-06-10T02:25:05;98452.75;;;15.75;87.26
29907;BME280;16776;50.958;10.994;2023-06-10T02:27:32;98455.66;;;15.69;87.66
29907;BME280;16776;50.958;10.994;2023-06-10T02:30:00;98467.78;;;15.68;87.46
29907;BME280;16776;50.958;10.994;2023-06-10T02:32:27;98471.72;;;15.60;87.33
29907;BME280;16776;50.958;10.994;2023-06-10T02:34:53;98478.03;;;15.54;87.71
29907;BME280;16776;50.958;10.994;2023-06-10T02:37:20;98466.19;;;15.49;87.53
29907;BME280;16776;50.958;10.994;2023-06-10T02:39:49;98462.22;;;15.42;87.80
29907;BME280;16776;50.958;10.994;2023-06-10T02:42:15;98464.19;;;15.36;87.68
29907;BME280;16776;50.958;10.994;2023-06-10T02:44:42;98465.47;;;15.28;87.81
29907;BME280;16776;50.958;10.994;2023-06-10T02:47:13;98467.84;;;15.32;88.15
29907;BME280;16776;50.958;10.994;2023-06-10T02:49:42;98465.81;;;15.20;87.99
29907;BME280;16776;50.958;10.994;2023-06-10T02:52:08;98466.91;;;15.16;88.22
29907;BME280;16776;50.958;10.994;2023-06-10T02:54:36;98470.53;;;15.12;88.11
29907;BME280;16776;50.958;10.994;2023-06-10T02:57:03;98456.78;;;15.10;88.14
29907;BME280;16776;50.958;10.994;2023-06-10T02:59:30;98462.25;;;15.04;88.47
29907;BME280;16776;50.958;10.994;2023-06-10T03:01:59;98467.38;;;15.06;88.50
29907;BME280;16776;50.958;10.994;2023-06-10T03:04:28;98474.63;;;14.99;88.42
29907;BME280;16776;50.958;10.994;2023-06-10T03:06:56;98478.34;;;14.93;88.43
29907;BME280;16776;50.958;10.994;2023-06-10T03:09:22;98462.16;;;14.88;88.55
29907;BME280;16776;50.958;10.994;2023-06-10T03:11:49;98466.63;;;14.85;88.73
29907;BME280;16776;50.958;10.994;2023-06-10T03:14:15;98478.91;;;14.81;88.85
29907;BME280;16776;50.958;10.994;2023-06-10T03:16:42;98481.63;;;14.78;88.94
29907;BME280;16776;50.958;10.994;2023-06-10T03:19:09;98464.50;;;14.76;88.82
29907;BME280;16776;50.958;10.994;2023-06-10T03:21:37;98480.88;;;14.76;89.07
29907;BME280;16776;50.958;10.994;2023-06-10T03:24:05;98483.66;;;14.72;89.39
29907;BME280;16776;50.958;10.994;2023-06-10T03:26:31;98476.88;;;14.69;89.30
29907;BME280;16776;50.958;10.994;2023-06-10T03:28:58;98473.44;;;14.69;89.37
29907;BME280;16776;50.958;10.994;2023-06-10T03:31:25;98479.53;;;14.68;89.50
29907;BME280;16776;50.958;10.994;2023-06-10T03:33:51;98476.09;;;14.67;89.65
29907;BME280;16776;50.958;10.994;2023-06-10T03:36:18;98477.00;;;14.66;89.76
29907;BME280;16776;50.958;10.994;2023-06-10T03:38:46;98481.22;;;14.69;89.70
29907;BME280;16776;50.958;10.994;2023-06-10T03:41:12;98476.09;;;14.67;90.08
29907;BME280;16776;50.958;10.994;2023-06-10T03:43:40;98480.31;;;14.70;90.02
29907;BME280;16776;50.958;10.994;2023-06-10T03:46:07;98484.78;;;14.66;89.75
29907;BME280;16776;50.958;10.994;2023-06-10T03:48:33;98489.13;;;14.66;89.93
29907;BME280;16776;50.958;10.994;2023-06-10T03:51:00;98483.19;;;14.64;89.79
29907;BME280;16776;50.958;10.994;2023-06-10T03:53:26;98489.28;;;14.63;89.97
29907;BME280;16776;50.958;10.994;2023-06-10T03:55:54;98484.03;;;14.64;89.72
29907;BME280;16776;50.958;10.994;2023-06-10T03:58:22;98493.75;;;14.59;90.23
29907;BME280;16776;50.958;10.994;2023-06-10T04:00:51;98495.53;;;14.58;90.11
29907;BME280;16776;50.958;10.994;2023-06-10T04:03:21;98493.63;;;14.62;90.35
29907;BME280;16776;50.958;10.994;2023-06-10T04:05:48;98493.84;;;14.57;90.35
29907;BME280;16776;50.958;10.994;2023-06-10T04:08:15;98485.16;;;14.58;90.41
29907;BME280;16776;50.958;10.994;2023-06-10T04:10:44;98495.44;;;14.60;90.70
29907;BME280;16776;50.958;10.994;2023-06-10T04:13:12;98464.91;;;14.48;90.46
29907;BME280;16776;50.958;10.994;2023-06-10T04:15:40;98495.25;;;14.65;90.83
29907;BME280;16776;50.958;10.994;2023-06-10T04:18:08;98489.91;;;14.68;90.82
29907;BME280;16776;50.958;10.994;2023-06-10T04:20:35;98489.00;;;14.69;91.00
29907;BME280;16776;50.958;10.994;2023-06-10T04:23:01;98483.66;;;14.72;90.94
29907;BME280;16776;50.958;10.994;2023-06-10T04:25:28;98486.97;;;14.75;91.01
29907;BME280;16776;50.958;10.994;2023-06-10T04:27:55;98499.72;;;14.80;91.00
29907;BME280;16776;50.958;10.994;2023-06-10T04:30:25;98499.44;;;14.86;90.95
29907;BME280;16776;50.958;10.994;2023-06-10T04:32:52;98492.44;;;14.88;91.31
29907;BME280;16776;50.958;10.994;2023-06-10T04:35:19;98498.25;;;14.93;91.38
29907;BME280;16776;50.958;10.994;2023-06-10T04:37:46;98493.53;;;15.01;91.50
29907;BME280;16776;50.958;10.994;2023-06-10T04:40:13;98502.78;;;15.07;91.52
29907;BME280;16776;50.958;10.994;2023-06-10T04:42:41;98511.13;;;15.13;91.48
29907;BME280;16776;50.958;10.994;2023-06-10T04:45:10;98515.78;;;15.24;91.73
29907;BME280;16776;50.958;10.994;2023-06-10T04:47:38;98514.75;;;15.28;91.44
29907;BME280;16776;50.958;10.994;2023-06-10T04:50:06;98511.06;;;15.33;91.80
29907;BME280;16776;50.958;10.994;2023-06-10T04:52:35;98511.59;;;15.40;92.28
29907;BME280;16776;50.958;10.994;2023-06-10T04:55:02;98506.78;;;15.50;92.04
29907;BME280;16776;50.958;10.994;2023-06-10T04:57:29;98512.41;;;15.59;91.97
29907;BME280;16776;50.958;10.994;2023-06-10T04:59:56;98519.81;;;15.67;91.95
29907;BME280;16776;50.958;10.994;2023-06-10T05:02:22;98517.66;;;15.75;92.10
29907;BME280;16776;50.958;10.994;2023-06-10T05:04:50;98518.97;;;15.84;92.01
29907;BME280;16776;50.958;10.994;2023-06-10T05:07:18;98522.09;;;15.90;92.30
29907;BME280;16776;50.958;10.994;2023-06-10T05:09:45;98521.66;;;15.99;92.34
29907;BME280;16776;50.958;10.994;2023-06-10T05:12:12;98524.53;;;16.10;91.89
29907;BME280;16776;50.958;10.994;2023-06-10T05:14:38;98524.94;;;16.20;92.28
29907;BME280;16776;50.958;10.994;2023-06-10T05:17:05;98532.19;;;16.31;92.69
29907;BME280;16776;50.958;10.994;2023-06-10T05:19:32;98529.78;;;16.43;93.26
29907;BME280;16776;50.958;10.994;2023-06-10T05:22:00;98536.63;;;16.62;92.82
29907;BME280;16776;50.958;10.994;2023-06-10T05:24:27;98533.31;;;16.75;93.17
29907;BME280;16776;50.958;10.994;2023-06-10T05:26:57;98546.84;;;16.97;92.71
29907;BME280;16776;50.958;10.994;2023-06-10T05:29:23;98548.78;;;17.10;92.53
29907;BME280;16776;50.958;10.994;2023-06-10T05:31:50;98542.06;;;17.21;91.88
29907;BME280;16776;50.958;10.994;2023-06-10T05:34:16;98536.34;;;17.30;91.74
29907;BME280;16776;50.958;10.994;2023-06-10T05:36:43;98540.38;;;17.36;91.90
29907;BME280;16776;50.958;10.994;2023-06-10T05:39:14;98531.16;;;17.46;91.58
29907;BME280;16776;50.958;10.994;2023-06-10T05:41:41;98536.94;;;17.51;91.89
29907;BME280;16776;50.958;10.994;2023-06-10T05:44:07;98533.06;;;17.58;92.14
29907;BME280;16776;50.958;10.994;2023-06-10T05:46:34;98540.25;;;17.69;92.22
29907;BME280;16776;50.958;10.994;2023-06-10T05:49:00;98542.19;;;17.81;92.61
29907;BME280;16776;50.958;10.994;2023-06-10T05:51:27;98547.34;;;17.97;92.73
29907;BME280;16776;50.958;10.994;2023-06-10T05:53:54;98548.13;;;18.13;92.82
29907;BME280;16776;50.958;10.994;2023-06-10T05:56:22;98541.72;;;18.33;92.61
29907;BME280;16776;50.958;10.994;2023-06-10T05:58:49;98546.91;;;18.48;92.62
29907;BME280;16776;50.958;10.994;2023-06-10T06:01:15;98544.03;;;18.67;92.70
29907;BME280;16776;50.958;10.994;2023-06-10T06:03:42;98545.50;;;18.85;92.54
29907;BME280;16776;50.958;10.994;2023-06-10T06:06:10;98541.84;;;19.02;92.34
29907;BME280;16776;50.958;10.994;2023-06-10T06:08:36;98543.50;;;19.17;92.46
29907;BME280;16776;50.958;10.994;2023-06-10T06:11:03;98536.50;;;19.32;92.32
29907;BME280;16776;50.958;10.994;2023-06-10T06:13:31;98543.25;;;19.49;91.90
29907;BME280;16776;50.958;10.994;2023-06-10T06:15:57;98534.69;;;19.59;92.32
29907;BME280;16776;50.958;10.994;2023-06-10T06:18:24;98516.97;;;19.64;92.02
29907;BME280;16776;50.958;10.994;2023-06-10T06:20:51;98537.19;;;19.88;92.02
29907;BME280;16776;50.958;10.994;2023-06-10T06:23:17;98539.63;;;20.03;92.10
29907;BME280;16776;50.958;10.994;2023-06-10T06:25:44;98539.66;;;20.16;91.57
29907;BME280;16776;50.958;10.994;2023-06-10T06:28:10;98540.50;;;20.29;92.00
29907;BME280;16776;50.958;10.994;2023-06-10T06:30:38;98544.78;;;20.43;91.92
29907;BME280;16776;50.958;10.994;2023-06-10T06:33:05;98539.69;;;20.54;91.47
29907;BME280;16776;50.958;10.994;2023-06-10T06:35:32;98548.50;;;20.66;92.02
29907;BME280;16776;50.958;10.994;2023-06-10T06:37:59;98544.19;;;20.77;91.91
29907;BME280;16776;50.958;10.994;2023-06-10T06:40:25;98548.56;;;20.89;91.56
29907;BME280;16776;50.958;10.994;2023-06-10T06:42:55;98541.72;;;21.00;91.41
29907;BME280;16776;50.958;10.994;2023-06-10T06:45:22;98551.56;;;21.09;90.88
29907;BME280;16776;50.958;10.994;2023-06-10T06:47:50;98538.53;;;21.20;91.58
29907;BME280;16776;50.958;10.994;2023-06-10T06:50:18;98554.47;;;21.29;91.71
29907;BME280;16776;50.958;10.994;2023-06-10T06:52:45;98549.28;;;21.41;91.95
29907;BME280;16776;50.958;10.994;2023-06-10T06:55:11;98561.59;;;21.51;91.82
29907;BME280;16776;50.958;10.994;2023-06-10T06:57:38;98553.81;;;21.62;91.70
29907;BME280;16776;50.958;10.994;2023-06-10T07:00:06;98553.84;;;21.73;91.52
29907;BME280;16776;50.958;10.994;2023-06-10T07:02:34;98555.66;;;21.84;91.66
29907;BME280;16776;50.958;10.994;2023-06-10T07:05:02;98553.72;;;21.99;91.45
29907;BME280;16776;50.958;10.994;2023-06-10T07:07:29;98555.53;;;22.09;92.01
29907;BME280;16776;50.958;10.994;2023-06-10T07:09:55;98563.31;;;22.22;91.32
29907;BME280;16776;50.958;10.994;2023-06-10T07:12:22;98562.28;;;22.36;91.57
29907;BME280;16776;50.958;10.994;2023-06-10T07:14:51;98557.19;;;22.45;92.09
29907;BME280;16776;50.958;10.994;2023-06-10T07:17:18;98560.56;;;22.59;91.27
29907;BME280;16776;50.958;10.994;2023-06-10T07:19:45;98544.34;;;22.65;91.16
29907;BME280;16776;50.958;10.994;2023-06-10T07:22:14;98562.13;;;22.83;91.13
29907;BME280;16776;50.958;10.994;2023-06-10T07:24:41;98560.81;;;22.89;90.78
29907;BME280;16776;50.958;10.994;2023-06-10T07:27:08;98562.84;;;22.97;90.76
29907;BME280;16776;50.958;10.994;2023-06-10T07:29:35;98564.13;;;23.02;90.76
29907;BME280;16776;50.958;10.994;2023-06-10T07:32:03;98567.97;;;23.09;91.20
29907;BME280;16776;50.958;10.994;2023-06-10T07:34:30;98564.72;;;23.17;90.89
29907;BME280;16776;50.958;10.994;2023-06-10T07:36:56;98556.00;;;23.27;90.99
29907;BME280;16776;50.958;10.994;2023-06-10T07:39:24;98554.91;;;23.41;90.62
29907;BME280;16776;50.958;10.994;2023-06-10T07:41:51;98548.88;;;23.50;90.66
29907;BME280;16776;50.958;10.994;2023-06-10T07:44:22;98554.94;;;23.62;90.44
29907;BME280;16776;50.958;10.994;2023-06-10T07:46:49;98552.28;;;23.73;91.17
29907;BME280;16776;50.958;10.994;2023-06-10T07:49:16;98550.34;;;23.86;90.78
29907;BME280;16776;50.958;10.994;2023-06-10T07:51:42;98553.88;;;23.96;90.46
29907;BME280;16776;50.958;10.994;2023-06-10T07:54:09;98559.91;;;24.08;90.48
29907;BME280;16776;50.958;10.994;2023-06-10T07:56:38;98548.34;;;24.20;91.27
29907;BME280;16776;50.958;10.994;2023-06-10T07:59:05;98554.53;;;24.30;90.89
29907;BME280;16776;50.958;10.994;2023-06-10T08:01:32;98530.00;;;24.30;90.23
29907;BME280;16776;50.958;10.994;2023-06-10T08:03:58;98551.75;;;24.53;89.97
29907;BME280;16776;50.958;10.994;2023-06-10T08:06:25;98560.69;;;24.61;90.46
29907;BME280;16776;50.958;10.994;2023-06-10T08:08:51;98551.97;;;24.70;90.24
29907;BME280;16776;50.958;10.994;2023-06-10T08:11:26;98557.31;;;24.80;89.58
29907;BME280;16776;50.958;10.994;2023-06-10T08:13:54;98556.53;;;24.89;90.21
29907;BME280;16776;50.958;10.994;2023-06-10T08:16:24;98554.22;;;24.96;90.02
29907;BME280;16776;50.958;10.994;2023-06-10T08:18:50;98557.81;;;24.95;89.27
29907;BME280;16776;50.958;10.994;2023-06-10T08:21:17;98550.59;;;24.97;89.46
29907;BME280;16776;50.958;10.994;2023-06-10T08:23:43;98550.34;;;25.00;89.56
29907;BME280;16776;50.958;10.994;2023-06-10T08:26:10;98538.41;;;25.05;89.05
29907;BME280;16776;50.958;10.994;2023-06-10T08:28:37;98545.06;;;25.09;90.41
29907;BME280;16776;50.958;10.994;2023-06-10T08:31:05;98546.78;;;25.20;90.10
29907;BME280;16776;50.958;10.994;2023-06-10T08:33:32;98545.28;;;25.27;89.46
29907;BME280;16776;50.958;10.994;2023-06-10T08:35:58;98545.41;;;25.35;89.82
29907;BME280;16776;50.958;10.994;2023-06-10T08:38:25;98541.25;;;25.42;89.47
29907;BME280;16776;50.958;10.994;2023-06-10T08:40:54;98541.19;;;25.53;89.12
29907;BME280;16776;50.958;10.994;2023-06-10T08:43:29;98533.53;;;25.60;89.03
29907;BME280;16776;50.958;10.994;2023-06-10T08:46:03;98534.81;;;25.65;89.18
29907;BME280;16776;50.958;10.994;2023-06-10T08:48:34;98521.88;;;25.62;89.01
29907;BME280;16776;50.958;10.994;2023-06-10T08:51:03;98536.88;;;25.72;89.03
29907;BME280;16776;50.958;10.994;2023-06-10T08:53:31;98547.16;;;25.75;89.40
29907;BME280;16776;50.958;10.994;2023-06-10T08:56:04;98544.09;;;25.79;88.69
29907;BME280;16776;50.958;10.994;2023-06-10T08:58:33;98547.00;;;25.86;89.56
29907;BME280;16776;50.958;10.994;2023-06-10T09:01:06;98550.91;;;25.91;88.50
29907;BME280;16776;50.958;10.994;2023-06-10T09:03:34;98548.25;;;26.01;88.88
29907;BME280;16776;50.958;10.994;2023-06-10T09:06:04;98550.34;;;26.07;88.89
29907;BME280;16776;50.958;10.994;2023-06-10T09:08:33;98554.41;;;26.11;88.85
29907;BME280;16776;50.958;10.994;2023-06-10T09:11:00;98560.22;;;26.15;88.72
29907;BME280;16776;50.958;10.994;2023-06-10T09:13:26;98554.63;;;26.18;87.78
29907;BME280;16776;50.958;10.994;2023-06-10T09:15:53;98547.41;;;26.20;88.59
29907;BME280;16776;50.958;10.994;2023-06-10T09:18:23;98553.94;;;26.25;88.22
29907;BME280;16776;50.958;10.994;2023-06-10T09:20:53;98549.63;;;26.34;88.43
29907;BME280;16776;50.958;10.994;2023-06-10T09:23:19;98538.63;;;26.38;88.10
29907;BME280;16776;50.958;10.994;2023-06-10T09:25:46;98547.63;;;26.45;88.31
29907;BME280;16776;50.958;10.994;2023-06-10T09:28:21;98540.94;;;26.51;88.05
29907;BME280;16776;50.958;10.994;2023-06-10T09:30:48;98534.25;;;26.57;87.72
29907;BME280;16776;50.958;10.994;2023-06-10T09:33:15;98534.00;;;26.60;88.22
29907;BME280;16776;50.958;10.994;2023-06-10T09:35:46;98539.41;;;26.68;87.68
29907;BME280;16776;50.958;10.994;2023-06-10T09:38:15;98536.06;;;26.66;87.79
29907;BME280;16776;50.958;10.994;2023-06-10T09:40:49;98537.59;;;26.68;87.58
29907;BME280;16776;50.958;10.994;2023-06-10T09:43:16;98542.19;;;26.66;87.54
29907;BME280;16776;50.958;10.994;2023-06-10T09:45:46;98538.41;;;26.69;87.42
29907;BME280;16776;50.958;10.994;2023-06-10T09:48:13;98543.25;;;26.73;87.71
29907;BME280;16776;50.958;10.994;2023-06-10T09:50:42;98536.56;;;26.79;87.96
29907;BME280;16776;50.958;10.994;2023-06-10T09:53:09;98534.75;;;26.79;87.64
29907;BME280;16776;50.958;10.994;2023-06-10T09:55:39;98530.84;;;26.83;87.93
29907;BME280;16776;50.958;10.994;2023-06-10T09:58:05;98533.03;;;26.88;87.15
29907;BME280;16776;50.958;10.994;2023-06-10T10:00:32;98527.75;;;26.88;87.16
29907;BME280;16776;50.958;10.994;2023-06-10T10:03:01;98521.09;;;26.84;87.15
29907;BME280;16776;50.958;10.994;2023-06-10T10:05:28;98524.97;;;26.90;87.16
29907;BME280;16776;50.958;10.994;2023-06-10T10:07:56;98528.16;;;26.93;87.88
29907;BME280;16776;50.958;10.994;2023-06-10T10:10:22;98520.63;;;26.98;87.63
29907;BME280;16776;50.958;10.994;2023-06-10T10:12:59;98516.78;;;27.10;87.19
29907;BME280;16776;50.958;10.994;2023-06-10T10:15:29;98512.31;;;27.11;87.48
29907;BME280;16776;50.958;10.994;2023-06-10T10:18:02;98510.50;;;27.11;87.52
29907;BME280;16776;50.958;10.994;2023-06-10T10:20:33;98512.47;;;27.19;87.07
29907;BME280;16776;50.958;10.994;2023-06-10T10:23:04;98501.72;;;27.20;86.71
29907;BME280;16776;50.958;10.994;2023-06-10T10:25:34;98512.97;;;27.22;85.76
29907;BME280;16776;50.958;10.994;2023-06-10T10:28:08;98500.72;;;27.21;85.91
29907;BME280;16776;50.958;10.994;2023-06-10T10:30:39;98507.03;;;27.11;85.55
29907;BME280;16776;50.958;10.994;2023-06-10T10:33:09;98506.94;;;27.03;85.52
29907;BME280;16776;50.958;10.994;2023-06-10T10:35:39;98506.59;;;26.88;85.52
29907;BME280;16776;50.958;10.994;2023-06-10T10:38:06;98500.25;;;26.81;85.60
29907;BME280;16776;50.958;10.994;2023-06-10T10:40:36;98493.06;;;26.73;85.68
29907;BME280;16776;50.958;10.994;2023-06-10T10:43:06;98487.22;;;26.70;86.08
29907;BME280;16776;50.958;10.994;2023-06-10T10:45:33;98495.84;;;26.72;86.49
29907;BME280;16776;50.958;10.994;2023-06-10T10:48:05;98491.34;;;26.82;86.10
29907;BME280;16776;50.958;10.994;2023-06-10T10:50:31;98485.25;;;26.81;86.79
29907;BME280;16776;50.958;10.994;2023-06-10T10:53:01;98482.53;;;26.91;86.27
29907;BME280;16776;50.958;10.994;2023-06-10T10:55:28;98486.25;;;26.98;86.63
29907;BME280;16776;50.958;10.994;2023-06-10T10:57:58;98488.69;;;27.09;86.47
29907;BME280;16776;50.958;10.994;2023-06-10T11:00:29;98464.19;;;27.17;86.58
29907;BME280;16776;50.958;10.994;2023-06-10T11:03:04;98486.63;;;27.31;85.88
29907;BME280;16776;50.958;10.994;2023-06-10T11:05:35;98476.75;;;27.33;86.16
29907;BME280;16776;50.958;10.994;2023-06-10T11:08:03;98475.44;;;27.37;85.68
29907;BME280;16776;50.958;10.994;2023-06-10T11:10:31;98470.00;;;27.38;86.35
29907;BME280;16776;50.958;10.994;2023-06-10T11:12:58;98463.81;;;27.30;86.03
29907;BME280;16776;50.958;10.994;2023-06-10T11:15:29;98481.19;;;27.50;85.70
29907;BME280;16776;50.958;10.994;2023-06-10T11:18:13;98480.56;;;27.56;85.74
29907;BME280;16776;50.958;10.994;2023-06-10T11:20:45;98478.22;;;27.53;86.19
29907;BME280;16776;50.958;10.994;2023-06-10T11:23:25;98484.94;;;27.65;86.10
29907;BME280;16776;50.958;10.994;2023-06-10T11:26:09;98479.91;;;27.72;86.01
29907;BME280;16776;50.958;10.994;2023-06-10T11:28:36;98467.72;;;27.61;85.00
29907;BME280;16776;50.958;10.994;2023-06-10T11:31:04;98471.66;;;27.57;85.23
29907;BME280;16776;50.958;10.994;2023-06-10T11:33:31;98467.88;;;27.42;84.62
29907;BME280;16776;50.958;10.994;2023-06-10T11:36:02;98477.94;;;27.38;84.64
29907;BME280;16776;50.958;10.994;2023-06-10T11:38:34;98473.09;;;27.34;85.01
29907;BME280;16776;50.958;10.994;2023-06-10T11:41:01;98479.28;;;27.24;85.52
29907;BME280;16776;50.958;10.994;2023-06-10T11:43:29;98485.69;;;27.22;85.04
29907;BME280;16776;50.958;10.994;2023-06-10T11:45:56;98477.53;;;27.15;84.68
29907;BME280;16776;50.958;10.994;2023-06-10T11:48:24;98474.22;;;27.13;84.78
29907;BME280;16776;50.958;10.994;2023-06-10T11:50:53;98468.81;;;27.05;84.39
29907;BME280;16776;50.958;10.994;2023-06-10T11:53:20;98473.88;;;26.99;84.70
29907;BME280;16776;50.958;10.994;2023-06-10T11:55:49;98471.69;;;26.94;84.53
29907;BME280;16776;50.958;10.994;2023-06-10T11:58:18;98455.72;;;26.86;85.17
29907;BME280;16776;50.958;10.994;2023-06-10T12:00:46;98457.91;;;26.91;85.57
29907;BME280;16776;50.958;10.994;2023-06-10T12:03:15;98471.13;;;26.91;85.33
29907;BME280;16776;50.958;10.994;2023-06-10T12:05:56;98482.31;;;27.02;85.33
29907;BME280;16776;50.958;10.994;2023-06-10T12:08:25;98464.28;;;26.98;85.13
29907;BME280;16776;50.958;10.994;2023-06-10T12:10:53;98473.88;;;26.99;85.24
29907;BME280;16776;50.958;10.994;2023-06-10T12:13:20;98466.78;;;26.99;85.13
29907;BME280;16776;50.958;10.994;2023-06-10T12:15:49;98474.69;;;26.99;84.89
29907;BME280;16776;50.958;10.994;2023-06-10T12:18:16;98468.34;;;26.92;84.89
29907;BME280;16776;50.958;10.994;2023-06-10T12:20:43;98470.84;;;26.94;84.59
29907;BME280;16776;50.958;10.994;2023-06-10T12:23:14;98471.28;;;26.89;84.36
29907;BME280;16776;50.958;10.994;2023-06-10T12:25:53;98469.22;;;26.83;84.94
29907;BME280;16776;50.958;10.994;2023-06-10T12:28:21;98467.47;;;26.74;84.97
29907;BME280;16776;50.958;10.994;2023-06-10T12:30:47;98470.41;;;26.71;85.61
29907;BME280;16776;50.958;10.994;2023-06-10T12:33:18;98468.16;;;26.76;84.60
29907;BME280;16776;50.958;10.994;2023-06-10T12:35:48;98459.25;;;26.77;85.50
29907;BME280;16776;50.958;10.994;2023-06-10T12:38:22;98468.38;;;26.82;85.40
29907;BME280;16776;50.958;10.994;2023-06-10T12:40:50;98463.69;;;26.76;84.97
29907;BME280;16776;50.958;10.994;2023-06-10T12:43:19;98456.00;;;26.83;84.65
29907;BME280;16776;50.958;10.994;2023-06-10T12:45:49;98458.81;;;26.81;84.97
29907;BME280;16776;50.958;10.994;2023-06-10T12:48:20;98463.41;;;26.79;85.39
29907;BME280;16776;50.958;10.994;2023-06-10T12:50:51;98451.03;;;26.80;85.16
29907;BME280;16776;50.958;10.994;2023-06-10T12:53:18;98439.41;;;26.73;85.13
29907;BME280;16776;50.958;10.994;2023-06-10T12:55:47;98447.19;;;26.74;84.96